sensor_id;sensor_type;location;lat;lon;timestamp;P1;durP1;ratioP1;P2;durP2;ratioP2
23624;SDS011;11989;47.872;12.014;2022-07-29T04:21:16;4.28;;;2.60;;
23624;SDS011;11989;47.872;12.014;2022-07-29T04:23:42;4.45;;;2.70;;
23624;SDS011;11989;47.872;12.014;2022-07-29T04:26:10;4.30;;;2.58;;
23624;SDS011;11989;47.872;12.014;2022-07-29T04:28:36;4.40;;;2.95;;
23624;SDS011;11989;47.872;12.014;2022-07-29T04:31:04;5.00;;;3.28;;
23624;SDS011;11989;47.872;12.014;2022-07-29T04:33:32;5.50;;;2.75;;
23624;SDS011;11989;47.872;12.014;2022-07-29T04:35:58;6.10;;;3.22;;
23624;SDS011;11989;47.872;12.014;2022-07-29T04:38:24;5.25;;;3.35;;
23624;SDS011;11989;47.872;12.014;2022-07-29T04:40:50;4.10;;;2.92;;
23624;SDS011;11989;47.872;12.014;2022-07-29T04:43:16;6.32;;;3.38;;
23624;SDS011;11989;47.872;12.014;2022-07-29T04:45:42;5.40;;;3.40;;
23624;SDS011;11989;47.872;12.014;2022-07-29T04:48:08;5.28;;;3.30;;
23624;SDS011;11989;47.872;12.014;2022-07-29T04:50:37;5.93;;;3.60;;
23624;SDS011;11989;47.872;12.014;2022-07-29T04:53:03;10.95;;;3.85;;
23624;SDS011;11989;47.872;12.014;2022-07-29T04:55:29;7.38;;;3.63;;
23624;SDS011;11989;47.872;12.014;2022-07-29T04:57:55;10.02;;;3.72;;
23624;SDS011;11989;47.872;12.014;2022-07-29T05:00:24;8.32;;;3.50;;
23624;SDS011;11989;47.872;12.014;2022-07-29T05:02:52;9.73;;;3.67;;
23624;SDS011;11989;47.872;12.014;2022-07-29T05:05:18;8.23;;;3.97;;
23624;SDS011;11989;47.872;12.014;2022-07-29T05:07:44;8.77;;;3.72;;
23624;SDS011;11989;47.872;12.014;2022-07-29T05:10:12;7.18;;;3.70;;
23624;SDS011;11989;47.872;12.014;2022-07-29T05:12:38;7.07;;;3.30;;
23624;SDS011;11989;47.872;12.014;2022-07-29T05:15:04;16.23;;;4.03;;
23624;SDS011;11989;47.872;12.014;2022-07-29T05:17:30;10.85;;;4.88;;
23624;SDS011;11989;47.872;12.014;2022-07-29T05:19:56;7.85;;;3.83;;
23624;SDS011;11989;47.872;12.014;2022-07-29T05:22:22;5.93;;;3.88;;
23624;SDS011;11989;47.872;12.014;2022-07-29T05:24:49;7.28;;;3.72;;
23624;SDS011;11989;47.872;12.014;2022-07-29T05:27:15;9.25;;;3.72;;
23624;SDS011;11989;47.872;12.014;2022-07-29T05:29:42;9.05;;;4.50;;
23624;SDS011;11989;47.872;12.014;2022-07-29T05:32:09;7.70;;;4.32;;
23624;SDS011;11989;47.872;12.014;2022-07-29T05:34:35;7.13;;;4.05;;
23624;SDS011;11989;47.872;12.014;2022-07-29T05:37:01;5.80;;;4.15;;
23624;SDS011;11989;47.872;12.014;2022-07-29T05:39:27;5.63;;;3.63;;
23624;SDS011;11989;47.872;12.014;2022-07-29T05:41:54;6.65;;;3.40;;
23624;SDS011;11989;47.872;12.014;2022-07-29T05:44:20;5.03;;;3.40;;
23624;SDS011;11989;47.872;12.014;2022-07-29T05:46:46;8.30;;;3.88;;
23624;SDS011;11989;47.872;12.014;2022-07-29T05:49:13;6.10;;;3.20;;
23624;SDS011;11989;47.872;12.014;2022-07-29T05:51:39;4.32;;;2.90;;
23624;SDS011;11989;47.872;12.014;2022-07-29T05:54:05;6.18;;;2.78;;
23624;SDS011;11989;47.872;12.014;2022-07-29T05:56:32;5.13;;;2.25;;
23624;SDS011;11989;47.872;12.014;2022-07-29T05:58:58;4.05;;;2.75;;
23624;SDS011;11989;47.872;12.014;2022-07-29T06:01:24;4.95;;;2.72;;
23624;SDS011;11989;47.872;12.014;2022-07-29T06:03:51;6.95;;;3.15;;
23624;SDS011;11989;47.872;12.014;2022-07-29T06:06:17;6.30;;;2.60;;
23624;SDS011;11989;47.872;12.014;2022-07-29T06:08:43;4.30;;;2.47;;
23624;SDS011;11989;47.872;12.014;2022-07-29T06:11:09;7.82;;;2.60;;
23624;SDS011;11989;47.872;12.014;2022-07-29T06:13:35;4.93;;;2.65;;
23624;SDS011;11989;47.872;12.014;2022-07-29T06:16:02;5.32;;;2.60;;
23624;SDS011;11989;47.872;12.014;2022-07-29T06:18:28;6.82;;;3.03;;
23624;SDS011;11989;47.872;12.014;2022-07-29T06:20:54;5.30;;;2.85;;
23624;SDS011;11989;47.872;12.014;2022-07-29T06:23:21;5.30;;;2.88;;
23624;SDS011;11989;47.872;12.014;2022-07-29T06:25:47;5.72;;;2.50;;
23624;SDS011;11989;47.872;12.014;2022-07-29T06:28:15;4.75;;;3.05;;
23624;SDS011;11989;47.872;12.014;2022-07-29T06:30:41;5.00;;;2.97;;
23624;SDS011;11989;47.872;12.014;2022-07-29T06:33:07;5.03;;;2.40;;
23624;SDS011;11989;47.872;12.014;2022-07-29T06:35:35;5.38;;;2.45;;
23624;SDS011;11989;47.872;12.014;2022-07-29T06:38:02;4.03;;;2.67;;
23624;SDS011;11989;47.872;12.014;2022-07-29T06:40:29;3.47;;;2.35;;
23624;SDS011;11989;47.872;12.014;2022-07-29T06:43:13;3.80;;;2.38;;
23624;SDS011;11989;47.872;12.014;2022-07-29T06:45:39;5.80;;;2.40;;
23624;SDS011;11989;47.872;12.014;2022-07-29T06:48:06;4.00;;;2.53;;
23624;SDS011;11989;47.872;12.014;2022-07-29T06:50:32;4.45;;;2.33;;
23624;SDS011;11989;47.872;12.014;2022-07-29T06:52:58;4.55;;;2.60;;
23624;SDS011;11989;47.872;12.014;2022-07-29T06:55:25;6.18;;;3.33;;
23624;SDS011;11989;47.872;12.014;2022-07-29T06:57:51;6.93;;;2.70;;
23624;SDS011;11989;47.872;12.014;2022-07-29T07:00:17;3.67;;;2.10;;
23624;SDS011;11989;47.872;12.014;2022-07-29T07:02:43;5.63;;;2.67;;
23624;SDS011;11989;47.872;12.014;2022-07-29T07:05:09;3.92;;;2.35;;
23624;SDS011;11989;47.872;12.014;2022-07-29T07:07:36;6.05;;;2.72;;
23624;SDS011;11989;47.872;12.014;2022-07-29T07:10:02;3.75;;;2.42;;
23624;SDS011;11989;47.872;12.014;2022-07-29T07:12:29;4.55;;;2.60;;
23624;SDS011;11989;47.872;12.014;2022-07-29T07:14:55;4.00;;;2.33;;
23624;SDS011;11989;47.872;12.014;2022-07-29T07:17:21;5.30;;;2.67;;
23624;SDS011;11989;47.872;12.014;2022-07-29T07:19:47;4.13;;;2.40;;
23624;SDS011;11989;47.872;12.014;2022-07-29T07:22:13;5.05;;;2.30;;
23624;SDS011;11989;47.872;12.014;2022-07-29T07:24:40;5.20;;;2.55;;
23624;SDS011;11989;47.872;12.014;2022-07-29T07:27:06;4.93;;;2.25;;
23624;SDS011;11989;47.872;12.014;2022-07-29T07:29:32;3.95;;;2.03;;
23624;SDS011;11989;47.872;12.014;2022-07-29T07:31:58;5.05;;;2.55;;
23624;SDS011;11989;47.872;12.014;2022-07-29T07:34:27;4.35;;;2.55;;
23624;SDS011;11989;47.872;12.014;2022-07-29T07:36:55;5.53;;;2.63;;
23624;SDS011;11989;47.872;12.014;2022-07-29T07:39:21;6.28;;;2.40;;
23624;SDS011;11989;47.872;12.014;2022-07-29T07:41:47;5.45;;;2.25;;
23624;SDS011;11989;47.872;12.014;2022-07-29T07:44:13;4.40;;;2.50;;
23624;SDS011;11989;47.872;12.014;2022-07-29T07:46:39;4.72;;;2.72;;
23624;SDS011;11989;47.872;12.014;2022-07-29T07:49:06;4.53;;;2.60;;
23624;SDS011;11989;47.872;12.014;2022-07-29T07:51:33;4.60;;;2.20;;
23624;SDS011;11989;47.872;12.014;2022-07-29T07:53:59;4.28;;;2.63;;
23624;SDS011;11989;47.872;12.014;2022-07-29T07:56:26;3.25;;;1.95;;
23624;SDS011;11989;47.872;12.014;2022-07-29T07:58:52;3.92;;;2.40;;
23624;SDS011;11989;47.872;12.014;2022-07-29T08:01:18;4.57;;;2.42;;
23624;SDS011;11989;47.872;12.014;2022-07-29T08:03:48;5.60;;;2.55;;
23624;SDS011;11989;47.872;12.014;2022-07-29T08:06:15;3.85;;;2.58;;
